Terminal Aerodrome Forecast
Issued by NWS Omaha/Valley, NE

Home | Current Version | Previous Version | Graphics & Text | Print | Product List | Glossary On
Versions: 1 2 3 4 5 6 7 8 9 10 11 12 13 14 15 16 17 18 19 20 21 22 23 24 25 26 27 28 29 30 31 32 33 34 35
240
FTUS43 KOAX 261729
TAFOFK
TAF
KOFK 261729Z 2618/2718 05014KT P6SM SCT040
     FM270400 06014G22KT P6SM VCSH OVC025
      TEMPO 2706/2709 4SM -TSRA BR OVC015CB
     FM271000 06014G22KT 5SM -SHRA BR OVC007=

USA.gov is the U.S. government's official web portal to all federal, state and local government web resources and services.